Time;durP1;ratioP1;P1;durP2;ratioP2;P2;SDS_P1;SDS_P2;PMS_P1;PMS_P2;Temp;Humidity;BMP_temperature;BMP_pressure;BME280_temperature;BME280_humidity;BME280_pressure;Samples;Min_cycle;Max_cycle;Signal;HPM_P1;HPM_P2
2021/04/24 00:02:17;;;;;;;8.13;6.55;;;;;;;4.08;68.75;98918.72;1741677;81;20958;-66
2021/04/24 00:04:44;;;;;;;10.15;6.45;;;;;;;4.09;68.70;98923.59;1741836;82;20895;-66
2021/04/24 00:07:12;;;;;;;9.30;6.58;;;;;;;4.11;68.88;98931.05;1741770;82;21198;-66
2021/04/24 00:09:48;;;;;;;8.83;7.03;;;;;;;4.11;68.85;98929.24;1741963;82;21053;-66
2021/04/24 00:12:15;;;;;;;9.60;6.55;;;;;;;4.12;69.01;98924.81;1741704;82;20973;-66
2021/04/24 00:14:44;;;;;;;9.80;6.22;;;;;;;4.13;68.71;98929.19;1741762;82;20926;-67
2021/04/24 00:17:11;;;;;;;9.73;6.10;;;;;;;4.11;68.85;98922.59;1741728;81;20966;-66
2021/04/24 00:19:40;;;;;;;8.90;6.03;;;;;;;4.12;68.83;98928.34;1741773;82;21215;-66
2021/04/24 00:22:10;;;;;;;9.45;6.50;;;;;;;4.11;68.86;98926.59;1741653;82;21049;-66
2021/04/24 00:24:38;;;;;;;10.98;7.75;;;;;;;4.11;68.89;98919.08;1741775;82;20958;-66
2021/04/24 00:27:05;;;;;;;10.38;8.18;;;;;;;4.11;68.84;98920.41;1741742;82;21636;-65
2021/04/24 00:29:34;;;;;;;10.60;5.87;;;;;;;4.10;68.78;98919.99;1741745;82;20915;-65
2021/04/24 00:32:02;;;;;;;10.30;6.25;;;;;;;4.10;68.88;98921.32;1741703;82;21205;-66
2021/04/24 00:34:30;;;;;;;10.82;7.28;;;;;;;4.10;68.96;98923.98;1741715;82;20963;-66
2021/04/24 00:36:58;;;;;;;8.75;5.97;;;;;;;4.09;69.02;98919.61;1741735;82;20982;-66
2021/04/24 00:39:26;;;;;;;7.95;5.60;;;;;;;4.07;69.05;98921.45;1741679;82;20994;-67
2021/04/24 00:41:54;;;;;;;11.57;7.25;;;;;;;4.04;69.07;98921.56;1741697;82;20958;-67
2021/04/24 00:44:22;;;;;;;11.50;6.75;;;;;;;4.00;69.09;98914.61;1741799;82;21453;-66
2021/04/24 00:46:51;;;;;;;7.20;6.33;;;;;;;3.98;69.08;98923.48;1741616;81;20973;-66
2021/04/24 00:49:19;;;;;;;6.40;5.80;;;;;;;3.95;69.05;98918.27;1741737;82;21017;-66
2021/04/24 00:51:47;;;;;;;8.93;5.78;;;;;;;3.94;69.17;98921.88;1741624;82;21577;-66
2021/04/24 00:54:16;;;;;;;10.30;6.92;;;;;;;3.90;69.30;98916.24;1741752;82;21049;-66
2021/04/24 00:56:44;;;;;;;9.18;6.78;;;;;;;3.87;69.29;98916.81;1741856;82;21199;-66
2021/04/24 00:59:13;;;;;;;9.20;6.78;;;;;;;3.85;69.38;98922.18;1719354;82;20974;-66
2021/04/24 01:01:41;;;;;;;7.25;6.05;;;;;;;3.81;69.47;98924.52;1741657;82;20926;-66
2021/04/24 01:04:09;;;;;;;8.78;7.08;;;;;;;3.77;69.58;98941.03;1741710;82;21392;-66
2021/04/24 01:06:39;;;;;;;11.57;7.08;;;;;;;3.73;69.74;98938.53;1741705;82;20994;-66
2021/04/24 01:09:06;;;;;;;10.28;7.50;;;;;;;3.70;69.90;98935.50;1741689;82;21223;-66
2021/04/24 01:11:33;;;;;;;9.00;7.03;;;;;;;3.67;70.13;98934.74;1741668;82;20942;-66
2021/04/24 01:14:01;;;;;;;10.43;6.92;;;;;;;3.62;70.24;98927.78;1741713;82;20954;-66
2021/04/24 01:16:29;;;;;;;8.13;7.10;;;;;;;3.58;70.45;98928.81;1741673;82;21026;-66
2021/04/24 01:18:56;;;;;;;10.23;6.58;;;;;;;3.51;70.58;98928.59;1741414;82;21013;-66
2021/04/24 01:21:24;;;;;;;13.20;6.60;;;;;;;3.49;70.79;98922.94;1741668;82;21202;-66
2021/04/24 01:23:54;;;;;;;11.03;7.67;;;;;;;3.44;71.03;98924.41;1695580;82;20930;-65
2021/04/24 01:26:22;;;;;;;7.35;6.58;;;;;;;3.43;71.01;98925.32;1719126;82;20903;-66
2021/04/24 01:28:52;;;;;;;10.00;7.33;;;;;;;3.41;71.20;98923.18;1741743;82;21472;-65
2021/04/24 01:31:19;;;;;;;8.33;6.35;;;;;;;3.39;71.32;98924.99;1741735;82;21022;-66
2021/04/24 01:33:47;;;;;;;11.83;7.42;;;;;;;3.37;71.40;98917.55;1741673;82;21467;-65
2021/04/24 01:36:16;;;;;;;11.93;7.65;;;;;;;3.34;71.46;98918.53;1741657;82;20966;-66
2021/04/24 01:38:44;;;;;;;9.63;7.30;;;;;;;3.32;71.58;98923.47;1741785;82;20935;-65
2021/04/24 01:41:11;;;;;;;11.22;7.72;;;;;;;3.28;71.67;98920.05;1741670;82;20938;-65
2021/04/24 01:43:39;;;;;;;10.20;7.15;;;;;;;3.25;71.86;98924.98;1741680;82;20998;-66
2021/04/24 01:46:07;;;;;;;9.10;7.95;;;;;;;3.22;72.04;98926.41;1741690;82;21397;-66
2021/04/24 01:48:34;;;;;;;11.65;8.05;;;;;;;3.19;72.16;98933.14;1741646;82;21376;-67
2021/04/24 01:51:03;;;;;;;9.10;8.00;;;;;;;3.16;72.36;98933.23;1741802;82;20926;-66
2021/04/24 01:53:30;;;;;;;10.43;7.80;;;;;;;3.12;72.56;98927.59;1741674;82;20899;-65
2021/04/24 01:55:58;;;;;;;11.22;7.40;;;;;;;3.11;72.68;98929.86;1741787;82;21006;-65
2021/04/24 01:58:25;;;;;;;9.00;7.33;;;;;;;3.11;72.71;98935.16;1741733;82;21266;-65
2021/04/24 02:00:59;;;;;;;9.73;8.45;;;;;;;3.08;72.74;98933.46;1741640;82;20958;-66
2021/04/24 02:03:27;;;;;;;9.65;8.65;;;;;;;3.08;72.87;98937.91;1741768;82;21412;-66
2021/04/24 02:05:54;;;;;;;10.35;8.78;;;;;;;3.05;72.93;98938.00;1741622;82;20938;-66
2021/04/24 02:08:39;;;;;;;12.85;9.23;;;;;;;3.04;73.10;98934.92;1741666;82;20943;-66
2021/04/24 02:11:10;;;;;;;9.73;8.78;;;;;;;3.01;73.20;98946.52;1741671;82;21211;-66
2021/04/24 02:13:40;;;;;;;11.57;8.83;;;;;;;2.98;73.32;98938.66;1741543;82;20958;-66
2021/04/24 02:16:11;;;;;;;9.73;8.33;;;;;;;2.97;73.36;98940.02;1741707;82;21025;-65
2021/04/24 02:18:41;;;;;;;13.08;9.08;;;;;;;2.94;73.51;98943.63;1741721;81;20930;-66
2021/04/24 02:21:10;;;;;;;10.63;9.15;;;;;;;2.94;73.61;98942.77;1741711;82;20951;-65
2021/04/24 02:23:38;;;;;;;14.00;10.13;;;;;;;2.91;73.77;98941.06;1741686;81;21393;-65
2021/04/24 02:26:07;;;;;;;11.60;9.83;;;;;;;2.88;73.74;98940.69;1741684;82;21505;-65
2021/04/24 02:28:36;;;;;;;14.28;9.75;;;;;;;2.86;73.72;98930.58;1741650;82;21037;-65
2021/04/24 02:31:03;;;;;;;14.95;9.53;;;;;;;2.85;73.79;98934.17;1741646;82;20915;-66
2021/04/24 02:33:30;;;;;;;13.10;10.38;;;;;;;2.84;73.78;98925.79;1741761;82;20930;-66
2021/04/24 02:36:00;;;;;;;11.85;8.48;;;;;;;2.82;73.99;98935.59;1741709;82;21989;-65
2021/04/24 02:38:33;;;;;;;10.82;9.70;;;;;;;2.79;73.97;98937.00;1741642;82;21395;-65
2021/04/24 02:41:04;;;;;;;11.20;10.10;;;;;;;2.78;73.98;98940.56;1741692;82;20958;-65
2021/04/24 02:43:32;;;;;;;14.38;10.10;;;;;;;2.74;74.03;98929.61;1741640;82;20890;-65
2021/04/24 02:46:01;;;;;;;11.53;8.83;;;;;;;2.71;74.07;98931.02;1741676;82;20934;-66
2021/04/24 02:48:29;;;;;;;11.57;8.90;;;;;;;2.68;74.15;98928.46;1741623;82;21396;-66
2021/04/24 02:50:56;;;;;;;14.33;9.08;;;;;;;2.66;74.21;98927.64;1741636;82;20997;-66
2021/04/24 02:53:23;;;;;;;9.45;8.33;;;;;;;2.65;74.38;98928.55;1741619;82;20930;-66
2021/04/24 02:55:52;;;;;;;10.38;8.55;;;;;;;2.64;74.29;98926.83;1741651;82;20934;-65
2021/04/24 02:58:20;;;;;;;11.73;8.73;;;;;;;2.61;74.34;98929.57;1741700;82;20998;-66
2021/04/24 03:00:48;;;;;;;12.05;8.55;;;;;;;2.58;74.35;98923.02;1741787;82;21603;-66
2021/04/24 03:03:16;;;;;;;11.93;8.95;;;;;;;2.55;74.42;98932.39;1741825;82;21467;-66
2021/04/24 03:05:44;;;;;;;8.30;7.28;;;;;;;2.53;74.38;98929.78;1741815;82;20942;-66
2021/04/24 03:08:12;;;;;;;9.83;8.03;;;;;;;2.52;74.46;98936.88;1741728;82;20919;-66
2021/04/24 03:10:41;;;;;;;10.53;8.88;;;;;;;2.48;74.57;98935.22;1741825;82;20922;-66
2021/04/24 03:13:10;;;;;;;10.60;9.18;;;;;;;2.45;74.55;98937.09;1741793;82;21176;-66
2021/04/24 03:15:39;;;;;;;11.45;9.53;;;;;;;2.41;74.58;98930.98;1741751;82;20993;-66
2021/04/24 03:18:07;;;;;;;12.75;9.25;;;;;;;2.39;74.56;98939.91;1741543;82;20993;-66
2021/04/24 03:20:35;;;;;;;11.80;8.45;;;;;;;2.35;74.60;98939.13;1741772;82;20943;-66
2021/04/24 03:23:04;;;;;;;11.60;7.87;;;;;;;2.31;74.63;98945.41;1741791;82;20950;-66
2021/04/24 03:25:31;;;;;;;10.65;8.65;;;;;;;2.27;74.71;98941.09;1741915;82;22188;-66
2021/04/24 03:27:59;;;;;;;9.40;8.43;;;;;;;2.24;74.78;98949.13;1741711;82;20997;-66
2021/04/24 03:30:27;;;;;;;10.13;8.60;;;;;;;2.20;74.88;98941.72;1741757;82;21563;-66
2021/04/24 03:32:55;;;;;;;12.65;9.45;;;;;;;2.19;75.00;98943.95;1741795;81;21037;-66
2021/04/24 03:35:23;;;;;;;10.18;7.80;;;;;;;2.16;75.04;98951.55;1741862;82;20938;-67
2021/04/24 03:37:50;;;;;;;9.73;8.03;;;;;;;2.15;75.06;98955.56;1741798;82;21378;-66
2021/04/24 03:40:18;;;;;;;14.00;8.70;;;;;;;2.16;75.11;98952.88;1741727;82;20990;-66
2021/04/24 03:42:46;;;;;;;8.88;7.80;;;;;;;2.19;75.19;98950.58;1741709;82;21045;-66
2021/04/24 03:45:19;;;;;;;13.22;8.13;;;;;;;2.22;75.20;98954.94;1741778;82;20942;-66
2021/04/24 03:47:51;;;;;;;9.53;8.50;;;;;;;2.29;75.21;98957.85;1741768;82;21025;-66
2021/04/24 03:50:19;;;;;;;9.68;8.35;;;;;;;2.38;75.08;98953.62;1741801;82;21246;-65
2021/04/24 03:52:49;;;;;;;10.28;8.03;;;;;;;2.50;74.98;98951.94;1741706;82;21022;-66
2021/04/24 03:55:18;;;;;;;9.33;7.75;;;;;;;2.68;74.69;98952.33;1741765;82;20993;-66
2021/04/24 03:57:46;;;;;;;15.40;7.97;;;;;;;2.93;74.20;98953.81;1741762;82;21514;-66
2021/04/24 04:00:19;;;;;;;10.48;6.45;;;;;;;3.18;73.64;98955.75;1741799;82;21427;-66
2021/04/24 04:02:59;;;;;;;7.92;6.87;;;;;;;3.41;72.42;98964.34;1741727;82;21376;-66
2021/04/24 04:05:32;;;;;;;10.05;7.10;;;;;;;3.65;71.65;98957.84;1741720;82;21087;-66
2021/04/24 04:07:59;;;;;;;11.25;6.37;;;;;;;3.80;71.28;98958.20;1741970;82;21014;-67
2021/04/24 04:10:28;;;;;;;9.25;7.75;;;;;;;3.97;70.73;98955.43;1741722;82;21018;-66
2021/04/24 04:12:56;;;;;;;9.78;7.55;;;;;;;4.10;70.27;98951.45;1741702;82;21029;-67
2021/04/24 04:15:25;;;;;;;9.38;6.95;;;;;;;4.19;69.59;98947.59;1741828;82;21393;-66
2021/04/24 04:18:04;;;;;;;9.08;6.17;;;;;;;4.23;69.11;98951.89;1741748;82;21065;-66
2021/04/24 04:20:32;;;;;;;10.05;8.28;;;;;;;4.25;68.73;98955.36;1754002;81;20962;-65
2021/04/24 04:23:00;;;;;;;11.50;7.65;;;;;;;4.24;68.38;98963.39;1755003;81;20985;-67
2021/04/24 04:25:27;;;;;;;12.47;7.22;;;;;;;4.21;68.38;98969.70;1755046;81;20985;-66
2021/04/24 04:27:55;;;;;;;9.13;6.37;;;;;;;4.15;68.19;98957.95;1755034;81;21351;-66
2021/04/24 04:30:24;;;;;;;12.40;6.87;;;;;;;4.11;68.49;98960.29;1755050;81;20950;-66
2021/04/24 04:32:51;;;;;;;12.35;8.08;;;;;;;4.07;68.38;98960.00;1755069;81;21493;-65
2021/04/24 04:35:20;;;;;;;14.47;7.37;;;;;;;4.07;68.57;98965.32;1754982;81;20993;-65
2021/04/24 04:37:48;;;;;;;9.33;6.67;;;;;;;4.16;68.66;98963.65;1755037;81;20986;-66
2021/04/24 04:40:15;;;;;;;11.53;6.28;;;;;;;4.37;68.72;98958.06;1754981;81;21206;-66
2021/04/24 04:42:44;;;;;;;7.70;6.25;;;;;;;4.66;68.13;98955.67;1754945;81;20954;-66
2021/04/24 04:45:14;;;;;;;11.45;6.87;;;;;;;4.97;67.00;98957.22;1755052;81;20949;-66
2021/04/24 04:47:42;;;;;;;8.08;6.33;;;;;;;5.25;65.78;98958.36;1755024;81;20958;-66
2021/04/24 04:50:14;;;;;;;16.20;7.20;;;;;;;5.43;64.90;98959.42;1755098;81;21415;-66
2021/04/24 04:52:43;;;;;;;9.73;7.00;;;;;;;5.58;64.60;98960.62;1755119;81;22361;-67
2021/04/24 04:55:12;;;;;;;9.28;6.72;;;;;;;5.68;63.97;98959.78;1755001;81;21380;-66
2021/04/24 04:57:39;;;;;;;10.28;7.72;;;;;;;5.77;63.68;98953.20;1754990;81;21430;-67
2021/04/24 05:00:10;;;;;;;8.20;7.30;;;;;;;5.84;63.68;98954.70;1754954;81;20985;-67
2021/04/24 05:02:39;;;;;;;9.85;7.15;;;;;;;5.92;63.59;98947.72;1755103;81;21431;-66
2021/04/24 05:05:08;;;;;;;10.82;8.03;;;;;;;5.98;62.99;98942.16;1755129;81;22288;-66
2021/04/24 05:07:37;;;;;;;11.55;7.83;;;;;;;6.02;62.94;98947.75;1754943;81;21008;-66
2021/04/24 05:10:07;;;;;;;11.80;7.15;;;;;;;6.07;62.59;98943.11;1754447;81;21064;-66
2021/04/24 05:12:35;;;;;;;12.35;7.70;;;;;;;6.12;62.39;98950.44;1754951;81;21367;-67
2021/04/24 05:15:04;;;;;;;9.58;6.65;;;;;;;6.23;62.61;98953.10;1755065;81;21475;-67
2021/04/24 05:17:32;;;;;;;8.78;7.08;;;;;;;6.39;61.60;98951.52;1755019;81;21211;-67
2021/04/24 05:19:59;;;;;;;11.63;6.22;;;;;;;6.60;61.66;98946.17;1757619;81;21020;-66
2021/04/24 05:22:29;;;;;;;9.05;6.40;;;;;;;6.93;60.72;98945.59;1759983;81;21021;-67
2021/04/24 05:24:57;;;;;;;6.42;5.78;;;;;;;7.28;59.76;98949.77;1760079;81;20989;-67
2021/04/24 05:27:26;;;;;;;11.57;6.30;;;;;;;7.58;58.58;98933.61;1760054;81;21510;-67
2021/04/24 05:29:54;;;;;;;7.83;4.87;;;;;;;7.81;57.47;98940.11;1760067;81;22635;-66
2021/04/24 05:32:21;;;;;;;7.42;5.17;;;;;;;8.01;56.30;98925.72;1760019;81;20957;-67
2021/04/24 05:34:49;;;;;;;7.70;5.20;;;;;;;8.20;55.49;98932.34;1760117;81;20957;-66
2021/04/24 05:37:17;;;;;;;13.13;6.50;;;;;;;8.41;55.01;98922.34;1760049;81;20953;-67
2021/04/24 05:39:44;;;;;;;10.15;5.50;;;;;;;8.73;54.89;98933.20;1760049;81;21011;-67
2021/04/24 05:42:12;;;;;;;7.53;5.58;;;;;;;9.07;52.58;98928.23;1760056;81;21371;-67
2021/04/24 05:44:40;;;;;;;8.28;6.17;;;;;;;9.42;51.41;98939.29;1760115;81;21554;-67
2021/04/24 05:47:08;;;;;;;6.78;4.37;;;;;;;9.72;49.98;98934.85;1760039;81;20989;-68
2021/04/24 05:49:35;;;;;;;7.90;5.03;;;;;;;10.02;49.50;98935.38;1760061;81;20942;-67
2021/04/24 05:52:05;;;;;;;7.17;5.45;;;;;;;10.27;48.58;98925.87;1760016;81;20953;-67
2021/04/24 05:54:33;;;;;;;10.48;5.20;;;;;;;10.53;48.04;98926.16;1760099;81;21375;-67
2021/04/24 05:57:01;;;;;;;11.83;4.22;;;;;;;10.75;47.21;98926.59;1760011;81;20958;-66
2021/04/24 05:59:31;;;;;;;6.55;4.08;;;;;;;10.96;47.13;98926.21;1760051;81;20966;-66
2021/04/24 06:02:00;;;;;;;8.33;4.20;;;;;;;11.17;46.78;98919.45;1760052;81;21016;-67
2021/04/24 06:04:28;;;;;;;6.70;5.08;;;;;;;11.28;45.78;98924.64;1760144;81;21009;-68
2021/04/24 06:07:04;;;;;;;10.68;4.40;;;;;;;11.29;44.63;98924.55;1760066;81;20957;-67
2021/04/24 06:09:29;;;;;;;5.10;4.05;;;;;;;11.11;44.68;98920.33;1759198;81;20977;-66
2021/04/24 06:11:56;;;;;;;7.62;4.75;;;;;;;10.85;45.00;98925.05;1760025;81;20997;-66
2021/04/24 06:14:25;;;;;;;6.92;4.35;;;;;;;10.60;46.71;98918.97;1760056;81;20926;-66
2021/04/24 06:16:52;;;;;;;6.45;4.60;;;;;;;10.37;47.30;98921.70;1760047;81;20933;-66
2021/04/24 06:19:20;;;;;;;7.62;4.62;;;;;;;10.15;48.01;98911.84;1758922;81;21356;-68
2021/04/24 06:21:50;;;;;;;6.20;4.83;;;;;;;9.97;48.67;98917.83;1754844;81;21454;-68
2021/04/24 06:24:18;;;;;;;7.28;4.60;;;;;;;9.74;48.87;98915.98;1755000;81;21016;-67
2021/04/24 06:26:47;;;;;;;9.75;5.33;;;;;;;9.66;49.59;98919.11;1754932;81;21061;-67
2021/04/24 06:29:15;;;;;;;6.22;3.83;;;;;;;9.63;49.30;98909.89;1754921;81;20929;-67
2021/04/24 06:31:43;;;;;;;7.72;4.70;;;;;;;9.66;49.49;98917.77;1754980;81;21255;-67
2021/04/24 06:34:10;;;;;;;9.73;4.62;;;;;;;9.74;49.61;98920.90;1755033;81;21044;-68
2021/04/24 06:36:39;;;;;;;10.43;5.72;;;;;;;9.80;49.10;98916.13;1755070;81;21454;-65
2021/04/24 06:39:07;;;;;;;8.53;4.67;;;;;;;9.79;49.02;98917.06;1755084;81;21044;-67
2021/04/24 06:41:35;;;;;;;5.37;3.70;;;;;;;9.74;48.78;98911.51;1755111;81;20949;-67
2021/04/24 06:44:05;;;;;;;6.00;4.17;;;;;;;9.68;48.52;98913.20;1755113;81;21364;-67
2021/04/24 06:46:32;;;;;;;8.38;4.90;;;;;;;9.57;48.31;98907.59;1755140;81;20950;-67
2021/04/24 06:49:00;;;;;;;5.03;4.03;;;;;;;9.46;48.54;98906.86;1755096;81;20997;-67
2021/04/24 06:51:28;;;;;;;6.50;4.53;;;;;;;9.34;47.75;98906.20;1755025;81;21052;-67
2021/04/24 06:53:55;;;;;;;6.90;4.45;;;;;;;9.22;48.54;98910.42;1755266;81;21474;-68
2021/04/24 06:56:22;;;;;;;6.70;5.30;;;;;;;9.12;49.03;98906.05;1755269;81;22486;-67
2021/04/24 06:58:51;;;;;;;5.12;3.75;;;;;;;9.00;49.21;98907.61;1755122;81;20970;-68
2021/04/24 07:01:18;;;;;;;4.28;3.70;;;;;;;8.89;49.69;98899.75;1755135;81;20993;-68
2021/04/24 07:03:47;;;;;;;7.30;5.05;;;;;;;8.79;49.67;98906.09;1755080;81;21001;-69
2021/04/24 07:06:17;;;;;;;5.65;4.47;;;;;;;8.66;50.80;98906.74;1755191;81;21048;-67
2021/04/24 07:08:45;;;;;;;10.03;5.08;;;;;;;8.57;51.58;98907.23;1755206;81;22128;-67
2021/04/24 07:11:12;;;;;;;13.22;7.03;;;;;;;8.49;51.68;98910.31;1755107;81;20949;-68
2021/04/24 07:13:40;;;;;;;8.05;5.80;;;;;;;8.42;52.12;98901.31;1755036;81;21017;-66
2021/04/24 07:16:11;;;;;;;6.87;4.62;;;;;;;8.34;51.60;98903.08;1755165;81;21025;-67
2021/04/24 07:18:44;;;;;;;7.15;5.00;;;;;;;8.29;52.62;98907.33;1755086;81;20977;-67
2021/04/24 07:21:09;;;;;;;6.75;5.12;;;;;;;8.19;52.77;98899.37;1759173;81;23614;-67
2021/04/24 07:23:38;;;;;;;9.43;5.20;;;;;;;8.11;53.33;98904.25;1760089;81;21009;-67
2021/04/24 07:26:08;;;;;;;11.25;5.70;;;;;;;8.04;53.76;98904.16;1760306;81;20953;-69
2021/04/24 07:28:38;;;;;;;6.67;5.22;;;;;;;7.91;53.66;98898.09;1760165;81;21454;-68
2021/04/24 07:31:06;;;;;;;9.85;7.15;;;;;;;7.84;53.84;98896.69;1760237;81;20937;-70
2021/04/24 07:33:33;;;;;;;11.43;6.47;;;;;;;7.73;54.68;98899.04;1760177;81;22614;-66
2021/04/24 07:36:03;;;;;;;13.43;6.50;;;;;;;7.65;56.71;98908.77;1760081;81;20953;-66
2021/04/24 07:38:31;;;;;;;7.15;6.08;;;;;;;7.55;57.82;98912.38;1760162;81;20898;-66
2021/04/24 07:40:58;;;;;;;11.03;6.47;;;;;;;7.36;59.47;98922.20;1760105;81;20977;-69
2021/04/24 07:43:27;;;;;;;8.73;6.92;;;;;;;7.30;60.38;98920.70;1760152;81;21430;-71
2021/04/24 07:45:55;;;;;;;12.85;7.80;;;;;;;7.21;60.89;98926.00;1760158;81;21357;-68
2021/04/24 07:48:23;;;;;;;10.65;7.85;;;;;;;7.14;61.06;98929.03;1760165;81;21375;-68
2021/04/24 07:50:51;;;;;;;12.43;7.85;;;;;;;7.07;61.79;98931.13;1760151;81;20906;-69
2021/04/24 07:53:20;;;;;;;9.48;7.55;;;;;;;6.94;62.95;98933.98;1760129;81;21021;-67
2021/04/24 07:55:48;;;;;;;13.40;8.15;;;;;;;6.85;63.46;98940.60;1760155;81;20993;-67
2021/04/24 07:58:16;;;;;;;14.13;8.25;;;;;;;6.65;64.68;98947.72;1760274;81;22279;-67
2021/04/24 08:00:43;;;;;;;9.35;6.67;;;;;;;6.35;66.58;98969.92;1760103;81;20949;-72
2021/04/24 08:03:12;;;;;;;8.08;5.15;;;;;;;6.11;67.98;98972.70;1760117;81;20946;-70
2021/04/24 08:05:40;;;;;;;6.03;5.42;;;;;;;6.00;68.62;98976.77;1760166;81;20997;-69
2021/04/24 08:08:08;;;;;;;8.48;6.50;;;;;;;5.84;69.66;98983.16;1760126;81;21050;-67
2021/04/24 08:10:36;;;;;;;7.87;6.33;;;;;;;5.67;70.74;98990.02;1760165;81;21422;-69
2021/04/24 08:13:04;;;;;;;9.85;7.15;;;;;;;5.58;71.61;98995.72;1760080;81;20951;-68
2021/04/24 08:15:32;;;;;;;9.25;6.65;;;;;;;5.48;72.19;98986.36;1760156;81;20949;-68
2021/04/24 08:18:00;;;;;;;9.63;7.90;;;;;;;5.42;72.87;98985.69;1760080;81;21000;-68
2021/04/24 08:20:28;;;;;;;11.05;7.62;;;;;;;5.45;72.94;98986.48;1757753;81;21025;-69
2021/04/24 08:22:55;;;;;;;12.70;8.03;;;;;;;5.52;73.50;98991.95;1755109;81;22052;-71
2021/04/24 08:25:23;;;;;;;11.95;8.90;;;;;;;5.63;74.54;98987.09;1755130;81;21379;-70
2021/04/24 08:27:51;;;;;;;14.13;10.03;;;;;;;5.78;74.29;98986.45;1755112;81;21372;-69
2021/04/24 08:30:20;;;;;;;14.33;10.10;;;;;;;5.90;73.21;98990.91;1754989;81;21025;-69
2021/04/24 08:32:47;;;;;;;11.25;8.35;;;;;;;5.98;72.60;99001.30;1755027;81;20997;-68
2021/04/24 08:35:17;;;;;;;10.98;7.00;;;;;;;5.97;71.22;99016.41;1755072;81;21437;-71
2021/04/24 08:37:47;;;;;;;6.00;4.33;;;;;;;5.91;68.29;99025.95;1755036;81;20924;-70
2021/04/24 08:40:17;;;;;;;4.10;3.27;;;;;;;5.84;67.15;99036.48;1755109;81;20956;-71
2021/04/24 08:42:48;;;;;;;5.47;4.42;;;;;;;5.68;67.97;99023.75;1755021;81;20949;-68
2021/04/24 08:45:16;;;;;;;7.45;3.58;;;;;;;5.56;68.90;99037.08;1755133;81;20905;-67
2021/04/24 08:47:49;;;;;;;9.90;5.37;;;;;;;5.43;69.76;99023.84;1754980;81;21368;-67
2021/04/24 08:50:21;;;;;;;7.08;5.20;;;;;;;5.32;70.29;99024.24;1755070;81;21001;-67
2021/04/24 08:52:49;;;;;;;6.97;5.53;;;;;;;5.24;71.35;99026.34;1754979;81;21029;-68
2021/04/24 08:55:27;;;;;;;10.53;7.00;;;;;;;5.19;72.08;99026.51;1755086;81;21474;-67
2021/04/24 08:57:55;;;;;;;10.72;7.75;;;;;;;5.24;73.64;99017.02;1755000;81;21088;-68
2021/04/24 09:00:29;;;;;;;8.20;6.33;;;;;;;5.37;75.27;99022.27;1755002;81;21369;-67
2021/04/24 09:02:56;;;;;;;9.60;5.97;;;;;;;5.58;75.59;99019.70;1755170;81;20965;-68
2021/04/24 09:05:25;;;;;;;8.00;5.60;;;;;;;5.79;75.20;99022.86;1755043;81;20966;-68
2021/04/24 09:08:04;;;;;;;6.67;4.40;;;;;;;6.00;74.57;99026.09;1754938;81;20949;-68
2021/04/24 09:10:42;;;;;;;9.33;4.97;;;;;;;6.13;72.20;99017.53;1755150;81;21072;-68
2021/04/24 09:13:11;;;;;;;8.48;4.87;;;;;;;6.29;71.70;99014.20;1753489;81;21309;-66
2021/04/24 09:15:41;;;;;;;5.92;5.25;;;;;;;6.43;72.39;99006.51;1726056;81;21012;-67
2021/04/24 09:18:09;;;;;;;5.30;4.72;;;;;;;6.59;71.92;99009.38;1754972;81;21526;-68
2021/04/24 09:20:59;;;;;;;7.65;5.53;;;;;;;6.77;72.36;99011.70;1754737;81;21063;-67
2021/04/24 09:23:36;;;;;;;8.25;6.75;;;;;;;6.98;71.43;99003.19;1755044;81;20958;-68
2021/04/24 09:26:10;;;;;;;8.05;7.25;;;;;;;7.24;70.17;99006.02;1755011;81;21380;-67
2021/04/24 09:28:44;;;;;;;10.08;7.60;;;;;;;7.47;70.48;99000.06;1754864;81;21013;-68
2021/04/24 09:31:20;;;;;;;10.30;7.83;;;;;;;7.70;70.02;98998.97;1754984;81;20946;-71
2021/04/24 09:33:57;;;;;;;8.83;7.12;;;;;;;7.88;69.16;98995.90;1754940;81;21017;-67
2021/04/24 09:36:38;;;;;;;8.43;7.40;;;;;;;8.05;68.32;98996.38;1755005;81;20957;-67
2021/04/24 09:39:09;;;;;;;9.90;7.70;;;;;;;8.18;67.17;98988.60;1755046;81;21195;-70
2021/04/24 09:41:41;;;;;;;8.78;7.42;;;;;;;8.24;64.70;98986.11;1754947;81;20962;-69
2021/04/24 09:44:16;;;;;;;7.62;6.62;;;;;;;8.32;65.95;98984.78;1755021;81;20945;-70
2021/04/24 09:46:51;;;;;;;10.35;8.63;;;;;;;8.36;63.32;98978.80;1755007;81;20898;-68
2021/04/24 09:49:31;;;;;;;8.38;7.22;;;;;;;8.44;66.26;98970.41;1754973;81;21005;-66
2021/04/24 09:52:07;;;;;;;11.97;9.38;;;;;;;8.56;65.37;98967.10;1754961;81;21279;-66
2021/04/24 09:54:47;;;;;;;10.15;7.62;;;;;;;8.68;65.86;98958.88;1755006;81;21052;-69
2021/04/24 09:57:20;;;;;;;9.13;6.62;;;;;;;8.83;63.45;98956.73;1753953;81;21494;-69
2021/04/24 09:59:56;;;;;;;7.75;6.95;;;;;;;8.90;61.24;98950.57;1754975;81;21029;-68
2021/04/24 10:02:32;;;;;;;7.08;6.35;;;;;;;9.00;61.28;98943.78;1754986;81;21360;-67
2021/04/24 10:05:16;;;;;;;8.83;6.53;;;;;;;9.13;60.49;98947.11;1754958;81;21359;-67
2021/04/24 10:07:55;;;;;;;7.58;6.78;;;;;;;9.15;54.58;98939.88;1754917;81;20969;-68
2021/04/24 10:10:35;;;;;;;7.62;6.17;;;;;;;9.21;55.50;98943.07;1754994;81;20945;-66
2021/04/24 10:13:08;;;;;;;8.35;7.35;;;;;;;9.29;52.50;98937.29;1754908;81;20888;-66
2021/04/24 10:15:44;;;;;;;9.83;6.72;;;;;;;9.34;51.85;98937.89;1754935;81;21040;-67
2021/04/24 10:18:14;;;;;;;11.45;8.65;;;;;;;9.44;52.50;98934.70;1755061;81;22307;-67
2021/04/24 10:20:45;;;;;;;9.55;6.40;;;;;;;9.53;54.76;98939.55;1751667;81;20962;-67
2021/04/24 10:23:14;;;;;;;8.53;5.97;;;;;;;9.59;52.75;98928.48;1741634;82;20942;-67
2021/04/24 10:25:41;;;;;;;8.13;6.78;;;;;;;9.66;51.99;98932.52;1741657;82;20998;-66
2021/04/24 10:28:10;;;;;;;6.90;6.20;;;;;;;9.64;50.53;98925.05;1741646;82;20974;-67
2021/04/24 10:30:38;;;;;;;10.78;7.00;;;;;;;9.65;49.33;98918.73;1741608;82;21393;-66
2021/04/24 10:33:06;;;;;;;9.08;6.83;;;;;;;9.63;48.76;98924.64;1741587;82;20950;-67
2021/04/24 10:35:34;;;;;;;11.63;7.10;;;;;;;9.64;48.54;98926.39;1741660;82;20946;-68
2021/04/24 10:38:03;;;;;;;7.72;5.92;;;;;;;9.62;48.99;98925.62;1741623;82;20950;-68
2021/04/24 10:40:30;;;;;;;6.78;5.22;;;;;;;9.54;45.88;98919.84;1741690;82;20997;-65
2021/04/24 10:42:59;;;;;;;6.70;4.95;;;;;;;9.54;45.57;98917.16;1741628;82;21208;-66
2021/04/24 10:45:31;;;;;;;9.18;4.92;;;;;;;9.55;43.50;98904.11;1741631;82;20910;-67
2021/04/24 10:47:59;;;;;;;6.90;5.45;;;;;;;9.60;43.90;98903.36;1741862;82;21017;-67
2021/04/24 10:50:44;;;;;;;11.22;7.53;;;;;;;9.70;46.57;98900.55;1741559;82;21101;-67
2021/04/24 10:53:30;;;;;;;7.58;5.47;;;;;;;9.83;47.92;98891.80;1741663;82;21340;-67
2021/04/24 10:56:00;;;;;;;8.60;5.80;;;;;;;9.94;47.21;98898.73;1741685;82;21368;-70
2021/04/24 10:58:31;;;;;;;7.12;5.85;;;;;;;10.08;44.87;98892.56;1741639;82;21021;-67
2021/04/24 11:01:00;;;;;;;9.83;6.20;;;;;;;10.16;44.90;98896.13;1741618;82;21017;-68
2021/04/24 11:03:41;;;;;;;12.23;7.08;;;;;;;10.22;45.98;98891.74;1741568;82;21014;-67
2021/04/24 11:06:25;;;;;;;9.50;5.72;;;;;;;10.28;44.38;98886.00;1741727;82;21479;-67
2021/04/24 11:09:18;;;;;;;6.37;5.20;;;;;;;10.41;45.83;98889.69;1741589;82;21726;-66
2021/04/24 11:11:49;;;;;;;;;;;;;;;10.55;45.50;98893.34;1744096;82;21069;-69
2021/04/24 11:14:18;;;;;;;7.78;5.05;;;;;;;10.62;43.16;98889.33;1741539;82;20145;-67
2021/04/24 11:16:47;;;;;;;6.15;5.28;;;;;;;10.68;42.54;98883.58;1718996;82;21033;-68
2021/04/24 11:19:40;;;;;;;5.42;4.40;;;;;;;10.69;36.80;98885.78;1719566;82;21037;-69
2021/04/24 11:22:35;;;;;;;7.15;4.00;;;;;;;10.69;38.89;98883.98;1750379;81;21207;-69
2021/04/24 11:25:27;;;;;;;9.73;4.00;;;;;;;10.73;38.01;98881.47;1755031;81;20965;-67
2021/04/24 11:28:13;;;;;;;7.92;4.60;;;;;;;10.73;38.51;98872.55;1755088;81;20957;-68
2021/04/24 11:31:01;;;;;;;5.80;4.58;;;;;;;10.77;37.74;98884.84;1755015;81;20926;-67
2021/04/24 11:33:45;;;;;;;5.20;4.10;;;;;;;10.74;36.75;98880.52;1755020;81;21451;-67
2021/04/24 11:36:25;;;;;;;6.50;4.65;;;;;;;10.70;36.70;98883.48;1755054;81;20925;-69
2021/04/24 11:39:04;;;;;;;7.00;4.37;;;;;;;10.64;37.12;98891.44;1755039;81;20965;-68
2021/04/24 11:41:45;;;;;;;5.53;4.55;;;;;;;10.59;37.43;98884.14;1755063;81;20949;-67
2021/04/24 11:44:22;;;;;;;7.85;4.47;;;;;;;10.56;37.36;98885.19;1755088;81;21383;-67
2021/04/24 11:46:55;;;;;;;5.80;4.28;;;;;;;10.56;37.93;98884.34;1755173;81;20986;-66
2021/04/24 11:49:27;;;;;;;6.42;4.55;;;;;;;10.60;38.04;98883.20;1755063;81;21200;-67
2021/04/24 11:51:59;;;;;;;4.70;4.03;;;;;;;10.63;37.10;98874.46;1754963;81;20942;-67